createdAt,value
2019-02-14T00:00:12.694Z,4.29
2019-02-14T00:01:12.700Z,4.29
2019-02-14T00:02:12.671Z,4.25
2019-02-14T00:03:12.657Z,4.37
2019-02-14T00:04:12.646Z,4.39
2019-02-14T00:05:16.552Z,4.37
2019-02-14T00:06:12.643Z,4.36
2019-02-14T00:07:12.612Z,4.39
2019-02-14T00:08:12.597Z,4.26
2019-02-14T00:09:12.585Z,4.32
2019-02-14T00:10:12.603Z,4.32
2019-02-14T00:11:12.581Z,4.42
2019-02-14T00:12:12.549Z,4.37
2019-02-14T00:13:12.537Z,4.40
2019-02-14T00:14:12.528Z,4.47
2019-02-14T00:15:12.548Z,4.46
2019-02-14T00:16:12.529Z,4.47
2019-02-14T00:17:12.490Z,4.39
2019-02-14T00:18:12.476Z,4.36
2019-02-14T00:19:12.471Z,4.37
2019-02-14T00:20:12.453Z,4.42
2019-02-14T00:21:12.444Z,4.42
2019-02-14T00:22:12.448Z,4.34
2019-02-14T00:23:12.429Z,4.36
2019-02-14T00:24:12.406Z,4.37
2019-02-14T00:25:12.394Z,4.36
2019-02-14T00:26:12.388Z,4.43
2019-02-14T00:27:12.399Z,4.39
2019-02-14T00:28:12.360Z,4.43
2019-02-14T00:29:12.352Z,4.40
2019-02-14T00:30:12.336Z,4.37
2019-02-14T00:31:12.330Z,4.43
2019-02-14T00:32:12.334Z,4.39
2019-02-14T00:33:12.307Z,4.34
2019-02-14T00:34:12.290Z,4.40
2019-02-14T00:35:12.279Z,4.37
2019-02-14T00:36:12.268Z,4.50
2019-02-14T00:37:12.279Z,4.34
2019-02-14T00:38:12.244Z,4.43
2019-02-14T00:39:12.237Z,4.36
2019-02-14T00:40:12.226Z,4.33
2019-02-14T00:41:12.211Z,4.40
2019-02-14T00:42:12.216Z,4.42
2019-02-14T00:43:12.251Z,4.43
2019-02-14T00:44:12.206Z,4.46
2019-02-14T00:45:12.162Z,4.39
2019-02-14T00:46:12.150Z,4.47
2019-02-14T00:47:12.162Z,4.40
2019-02-14T00:48:12.129Z,4.57
2019-02-14T00:49:12.117Z,4.46
2019-02-14T00:50:12.104Z,4.44
2019-02-14T00:51:12.092Z,4.42
2019-02-14T00:52:12.079Z,4.54
2019-02-14T00:53:12.088Z,4.57
2019-02-14T00:54:12.055Z,4.59
2019-02-14T00:55:12.046Z,4.55
2019-02-14T00:56:12.035Z,4.58
2019-02-14T00:57:12.023Z,4.57
2019-02-14T00:58:12.029Z,4.47
2019-02-14T00:59:11.999Z,4.46
2019-02-14T01:00:11.988Z,4.46
2019-02-14T01:01:11.977Z,4.43
2019-02-14T01:02:11.964Z,4.59
2019-02-14T01:03:11.971Z,4.47
2019-02-14T01:04:11.946Z,4.50
2019-02-14T01:05:11.928Z,4.47
2019-02-14T01:06:11.920Z,4.44
2019-02-14T01:07:11.907Z,4.37
2019-02-14T01:08:11.913Z,4.44
2019-02-14T01:09:11.882Z,4.40
2019-02-14T01:10:11.870Z,4.33
2019-02-14T01:11:11.859Z,4.26
2019-02-14T01:12:11.845Z,4.29
2019-02-14T01:13:11.864Z,4.43
2019-02-14T01:14:11.879Z,4.25
2019-02-14T01:15:11.819Z,4.36
2019-02-14T01:16:11.802Z,4.44
2019-02-14T01:17:11.786Z,4.29
2019-02-14T01:18:11.774Z,4.28
2019-02-14T01:19:11.781Z,4.32
2019-02-14T01:20:11.749Z,4.21
2019-02-14T01:21:11.739Z,4.32
2019-02-14T01:22:11.730Z,4.22
2019-02-14T01:23:11.714Z,4.21
2019-02-14T01:24:11.721Z,4.29
2019-02-14T01:25:11.692Z,4.10
2019-02-14T01:26:11.680Z,4.22
2019-02-14T01:27:11.666Z,4.18
2019-02-14T01:28:11.655Z,4.12
2019-02-14T01:29:11.663Z,4.12
2019-02-14T01:30:11.631Z,4.18
2019-02-14T01:31:11.621Z,3.97
2019-02-14T01:32:11.619Z,4.04
2019-02-14T01:33:11.599Z,4.07
2019-02-14T01:34:11.643Z,4.00
2019-02-14T01:35:11.573Z,3.90
2019-02-14T01:36:11.562Z,3.83
2019-02-14T01:37:11.549Z,3.88
2019-02-14T01:38:11.537Z,3.76
2019-02-14T01:39:11.541Z,3.85
2019-02-14T01:40:11.513Z,3.76
2019-02-14T01:41:11.501Z,3.80
2019-02-14T01:42:11.490Z,3.76
2019-02-14T01:43:11.478Z,3.76
2019-02-14T01:44:11.488Z,3.72
2019-02-14T01:45:11.455Z,3.79
2019-02-14T01:46:11.443Z,3.78
2019-02-14T01:47:11.436Z,3.78
2019-02-14T01:48:11.421Z,3.75
2019-02-14T01:49:11.429Z,3.75
2019-02-14T01:50:11.397Z,3.65
2019-02-14T01:51:11.385Z,3.76
2019-02-14T01:52:11.373Z,3.76
2019-02-14T01:53:11.362Z,3.76
2019-02-14T01:54:11.391Z,3.78
2019-02-14T01:55:11.339Z,3.76
2019-02-14T01:56:11.327Z,3.79
2019-02-14T01:57:11.315Z,3.61
2019-02-14T01:58:11.306Z,3.67
2019-02-14T01:59:11.292Z,3.64
2019-02-14T02:00:11.306Z,3.68
2019-02-14T02:01:11.269Z,3.76
2019-02-14T02:02:11.258Z,3.72
2019-02-14T02:03:11.245Z,3.76
2019-02-14T02:04:11.236Z,3.67
2019-02-14T02:05:11.242Z,3.70
2019-02-14T02:06:11.214Z,3.57
2019-02-14T02:07:11.203Z,3.58
2019-02-14T02:08:11.190Z,3.62
2019-02-14T02:09:11.178Z,3.57
2019-02-14T02:10:11.185Z,3.67
2019-02-14T02:11:11.162Z,3.50
2019-02-14T02:12:11.143Z,3.61
2019-02-14T02:13:11.133Z,3.53
2019-02-14T02:14:11.121Z,3.65
2019-02-14T02:15:11.127Z,3.64
2019-02-14T02:16:11.100Z,3.65
2019-02-14T02:17:11.086Z,3.64
2019-02-14T02:18:11.075Z,3.72
2019-02-14T02:19:11.062Z,3.67
2019-02-14T02:20:11.068Z,3.68
2019-02-14T02:21:11.041Z,3.71
2019-02-14T02:22:11.028Z,3.78
2019-02-14T02:23:11.018Z,3.83
2019-02-14T02:24:11.025Z,3.80
2019-02-14T02:25:10.995Z,3.79
2019-02-14T02:26:10.984Z,4.00
2019-02-14T02:27:10.972Z,3.86
2019-02-14T02:28:10.960Z,3.94
2019-02-14T02:29:10.974Z,3.88
2019-02-14T02:30:10.939Z,3.85
2019-02-14T02:31:10.932Z,3.92
2019-02-14T02:32:10.913Z,3.90
2019-02-14T02:33:10.901Z,3.94
2019-02-14T02:34:10.890Z,4.10
2019-02-14T02:35:10.895Z,4.16
2019-02-14T02:36:10.865Z,4.07
2019-02-14T02:37:10.857Z,4.10
2019-02-14T02:38:10.842Z,4.04
2019-02-14T02:39:10.831Z,4.10
2019-02-14T02:40:10.835Z,4.06
2019-02-14T02:41:10.814Z,4.00
2019-02-14T02:42:10.795Z,4.04
2019-02-14T02:43:10.782Z,4.00
2019-02-14T02:44:10.770Z,3.82
2019-02-14T02:45:10.787Z,3.82
2019-02-14T02:46:10.745Z,3.83
2019-02-14T02:47:10.761Z,3.78
2019-02-14T02:48:10.724Z,3.86
2019-02-14T02:49:10.712Z,3.88
2019-02-14T02:50:10.704Z,3.92
2019-02-14T02:51:10.705Z,3.83
2019-02-14T02:52:10.677Z,3.88
2019-02-14T02:53:10.665Z,3.85
2019-02-14T02:54:10.654Z,3.90
2019-02-14T02:55:10.653Z,3.88
2019-02-14T02:56:10.653Z,3.88
2019-02-14T02:57:10.623Z,3.86
2019-02-14T02:58:10.609Z,3.70
2019-02-14T02:59:10.596Z,3.82
2019-02-14T03:00:10.586Z,3.79
2019-02-14T03:01:10.572Z,3.68
2019-02-14T03:02:10.582Z,3.75
2019-02-14T03:03:10.548Z,3.62
2019-02-14T03:04:10.535Z,3.71
2019-02-14T03:05:10.524Z,3.75
2019-02-14T03:06:11.031Z,3.78
2019-02-14T03:07:10.520Z,3.65
2019-02-14T03:08:10.497Z,3.64
2019-02-14T03:09:10.482Z,3.65
2019-02-14T03:10:10.468Z,3.64
2019-02-14T03:11:10.453Z,3.53
2019-02-14T03:12:10.458Z,3.49
2019-02-14T03:13:10.429Z,3.52
2019-02-14T03:14:10.420Z,3.54
2019-02-14T03:15:10.405Z,3.49
2019-02-14T03:16:10.392Z,3.43
2019-02-14T03:17:10.401Z,3.52
2019-02-14T03:18:10.370Z,3.44
2019-02-14T03:19:10.359Z,3.42
2019-02-14T03:20:10.352Z,3.44
2019-02-14T03:21:10.340Z,3.43
2019-02-14T03:22:10.357Z,3.42
2019-02-14T03:23:10.314Z,3.53
2019-02-14T03:24:10.304Z,3.42
2019-02-14T03:25:10.292Z,3.43
2019-02-14T03:26:10.281Z,3.33
2019-02-14T03:27:10.268Z,3.43
2019-02-14T03:28:10.276Z,3.36
2019-02-14T03:29:10.246Z,3.36
2019-02-14T03:30:10.236Z,3.31
2019-02-14T03:31:10.225Z,3.30
2019-02-14T03:32:10.216Z,3.28
2019-02-14T03:33:10.219Z,3.33
2019-02-14T03:34:10.194Z,3.34
2019-02-14T03:35:10.181Z,3.28
2019-02-14T03:36:18.418Z,3.20
2019-02-14T03:37:11.155Z,3.30
2019-02-14T03:38:10.161Z,3.40
2019-02-14T03:39:10.136Z,3.39
2019-02-14T03:40:10.123Z,3.27
2019-02-14T03:41:10.110Z,3.24
2019-02-14T03:42:10.100Z,3.25
2019-02-14T03:43:10.133Z,3.27
2019-02-14T03:44:10.077Z,3.13
2019-02-14T03:45:10.066Z,3.12
2019-02-14T03:46:10.054Z,3.20
2019-02-14T03:47:10.043Z,3.20
2019-02-14T03:48:10.032Z,3.16
2019-02-14T03:49:10.040Z,3.18
2019-02-14T03:50:10.013Z,3.16
2019-02-14T03:51:10.006Z,3.12
2019-02-14T03:52:09.994Z,3.15
2019-02-14T03:53:09.974Z,3.09
2019-02-14T03:54:09.981Z,3.10
2019-02-14T03:55:09.950Z,3.23
2019-02-14T03:56:09.938Z,3.13
2019-02-14T03:57:09.930Z,3.20
2019-02-14T03:58:09.917Z,3.06
2019-02-14T03:59:09.943Z,3.07
2019-02-14T04:00:09.893Z,2.98
2019-02-14T04:01:09.882Z,2.98
2019-02-14T04:02:09.870Z,2.98
2019-02-14T04:03:09.857Z,2.82
2019-02-14T04:04:09.847Z,2.94
2019-02-14T04:05:09.856Z,2.91
2019-02-14T04:06:09.827Z,2.95
2019-02-14T04:07:09.814Z,2.88
2019-02-14T04:08:09.802Z,2.92
2019-02-14T04:09:09.789Z,2.89
2019-02-14T04:10:09.819Z,2.88
2019-02-14T04:11:09.765Z,2.87
2019-02-14T04:12:09.754Z,2.82
2019-02-14T04:13:09.745Z,2.88
2019-02-14T04:14:09.741Z,2.89
2019-02-14T04:15:09.720Z,2.81
2019-02-14T04:16:09.726Z,2.79
2019-02-14T04:17:09.698Z,2.84
2019-02-14T04:18:09.687Z,2.89
2019-02-14T04:19:09.674Z,2.89
2019-02-14T04:20:09.666Z,2.91
2019-02-14T04:21:09.675Z,3.03
2019-02-14T04:22:09.639Z,2.92
2019-02-14T04:23:09.628Z,2.89
2019-02-14T04:24:09.616Z,2.95
2019-02-14T04:25:09.606Z,2.84
2019-02-14T04:26:09.593Z,3.00
2019-02-14T04:27:09.605Z,2.85
2019-02-14T04:28:09.571Z,2.87
2019-02-14T04:29:09.559Z,2.89
2019-02-14T04:30:09.549Z,2.79
2019-02-14T04:31:09.537Z,2.92
2019-02-14T04:32:09.543Z,3.02
2019-02-14T04:33:09.518Z,3.00
2019-02-14T04:34:09.502Z,2.98
2019-02-14T04:35:09.500Z,2.94
2019-02-14T04:36:09.483Z,2.98
2019-02-14T04:37:09.490Z,2.91
2019-02-14T04:38:09.459Z,3.05
2019-02-14T04:39:09.446Z,2.92
2019-02-14T04:40:09.435Z,3.02
2019-02-14T04:41:09.424Z,2.95
2019-02-14T04:42:09.434Z,2.85
2019-02-14T04:43:09.411Z,3.02
2019-02-14T04:44:09.391Z,3.03
2019-02-14T04:45:09.379Z,2.91
2019-02-14T04:46:09.370Z,2.94
2019-02-14T04:47:09.382Z,2.87
2019-02-14T04:48:09.345Z,2.91
2019-02-14T04:49:09.334Z,2.88
2019-02-14T04:50:09.323Z,2.92
2019-02-14T04:51:09.311Z,2.91
2019-02-14T04:52:09.303Z,2.85
2019-02-14T04:53:09.308Z,2.84
2019-02-14T04:54:09.277Z,2.89
2019-02-14T04:55:09.265Z,2.82
2019-02-14T04:56:09.261Z,2.94
2019-02-14T04:57:09.253Z,2.92
2019-02-14T04:58:09.274Z,2.85
2019-02-14T04:59:09.220Z,2.85
2019-02-14T05:00:09.210Z,2.87
2019-02-14T05:01:09.199Z,2.82
2019-02-14T05:02:09.186Z,2.69
2019-02-14T05:03:09.203Z,2.73
2019-02-14T05:04:09.184Z,2.67
2019-02-14T05:05:09.154Z,2.69
2019-02-14T05:06:09.144Z,2.63
2019-02-14T05:07:09.130Z,2.56
2019-02-14T05:08:09.137Z,2.53
2019-02-14T05:09:09.111Z,2.53
2019-02-14T05:10:09.101Z,2.49
2019-02-14T05:11:09.085Z,2.46
2019-02-14T05:12:09.078Z,2.41
2019-02-14T05:13:09.085Z,2.33
2019-02-14T05:14:09.051Z,2.40
2019-02-14T05:15:09.043Z,2.38
2019-02-14T05:16:09.035Z,2.33
2019-02-14T05:17:09.017Z,2.35
2019-02-14T05:18:09.006Z,2.34
2019-02-14T05:19:09.012Z,2.26
2019-02-14T05:20:08.985Z,2.31
2019-02-14T05:21:08.975Z,2.23
2019-02-14T05:22:08.962Z,2.26
2019-02-14T05:23:08.950Z,2.22
2019-02-14T05:24:08.961Z,2.23
2019-02-14T05:25:08.930Z,2.26
2019-02-14T05:26:08.919Z,2.23
2019-02-14T05:27:08.905Z,2.16
2019-02-14T05:28:08.897Z,2.28
2019-02-14T05:29:08.907Z,2.26
2019-02-14T05:30:08.874Z,2.20
2019-02-14T05:31:08.865Z,2.26
2019-02-14T05:32:08.849Z,2.10
2019-02-14T05:33:08.838Z,2.15
2019-02-14T05:34:08.846Z,2.20
2019-02-14T05:35:08.815Z,2.16
2019-02-14T05:36:08.806Z,2.13
2019-02-14T05:37:08.798Z,1.99
2019-02-14T05:38:08.782Z,2.10
2019-02-14T05:39:08.788Z,2.04
2019-02-14T05:40:08.760Z,2.01
2019-02-14T05:41:08.745Z,2.10
2019-02-14T05:42:08.739Z,2.02
2019-02-14T05:43:08.727Z,1.99
2019-02-14T05:44:08.737Z,2.23
2019-02-14T05:45:08.703Z,2.15
2019-02-14T05:46:08.698Z,2.23
2019-02-14T05:47:08.679Z,2.17
2019-02-14T05:48:08.667Z,2.20
2019-02-14T05:49:08.674Z,2.16
2019-02-14T05:50:08.659Z,2.15
2019-02-14T05:51:08.633Z,2.16
2019-02-14T05:52:08.628Z,2.20
2019-02-14T05:53:08.610Z,2.19
2019-02-14T05:54:08.619Z,2.17
2019-02-14T05:55:08.588Z,2.15
2019-02-14T05:56:08.580Z,2.12
2019-02-14T05:57:08.564Z,2.16
2019-02-14T05:58:08.555Z,2.19
2019-02-14T05:59:08.561Z,2.20
2019-02-14T06:00:08.530Z,2.10
2019-02-14T06:01:08.517Z,2.16
2019-02-14T06:02:08.509Z,2.15
2019-02-14T06:03:08.499Z,2.13
2019-02-14T06:04:08.503Z,2.23
2019-02-14T06:05:08.474Z,2.22
2019-02-14T06:06:08.462Z,2.28
2019-02-14T06:07:08.452Z,2.27
2019-02-14T06:08:08.439Z,2.31
2019-02-14T06:09:08.447Z,2.19
2019-02-14T06:10:08.422Z,2.19
2019-02-14T06:11:08.404Z,2.23
2019-02-14T06:12:08.395Z,2.23
2019-02-14T06:13:08.382Z,2.19
2019-02-14T06:14:08.394Z,2.23
2019-02-14T06:15:08.360Z,2.22
2019-02-14T06:16:08.347Z,2.35
2019-02-14T06:17:08.337Z,2.22
2019-02-14T06:18:08.325Z,2.31
2019-02-14T06:19:08.334Z,2.28
2019-02-14T06:20:08.305Z,2.38
2019-02-14T06:21:08.292Z,2.30
2019-02-14T06:22:08.281Z,2.30
2019-02-14T06:23:08.274Z,2.28
2019-02-14T06:24:08.281Z,2.31
2019-02-14T06:25:08.258Z,2.31
2019-02-14T06:26:08.244Z,2.27
2019-02-14T06:27:08.225Z,2.30
2019-02-14T06:28:08.213Z,2.35
2019-02-14T06:29:08.201Z,2.34
2019-02-14T06:30:08.209Z,2.23
2019-02-14T06:31:08.180Z,2.30
2019-02-14T06:32:08.171Z,2.31
2019-02-14T06:33:08.156Z,2.33
2019-02-14T06:34:08.146Z,2.37
2019-02-14T06:35:08.177Z,2.35
2019-02-14T06:36:08.124Z,2.41
2019-02-14T06:37:09.925Z,2.35
2019-02-14T06:38:08.101Z,2.51
2019-02-14T06:39:08.090Z,2.35
2019-02-14T06:40:08.081Z,2.38
2019-02-14T06:41:08.088Z,2.40
2019-02-14T06:42:08.058Z,2.35
2019-02-14T06:43:08.048Z,2.56
2019-02-14T06:44:08.035Z,2.51
2019-02-14T06:45:08.024Z,2.55
2019-02-14T06:46:08.028Z,2.53
2019-02-14T06:47:08.000Z,2.61
2019-02-14T06:48:07.989Z,2.66
2019-02-14T06:49:07.981Z,2.64
2019-02-14T06:50:07.965Z,2.53
2019-02-14T06:51:07.994Z,2.52
2019-02-14T06:52:07.942Z,2.61
2019-02-14T06:53:07.930Z,2.51
2019-02-14T06:54:07.919Z,2.51
2019-02-14T06:55:07.909Z,2.46
2019-02-14T06:56:07.901Z,2.55
2019-02-14T06:57:07.906Z,2.49
2019-02-14T06:58:07.875Z,2.46
2019-02-14T06:59:07.862Z,2.46
2019-02-14T07:00:07.855Z,2.35
2019-02-14T07:01:07.862Z,2.33
2019-02-14T07:02:07.829Z,2.31
2019-02-14T07:03:07.818Z,2.19
2019-02-14T07:04:07.808Z,2.26
2019-02-14T07:05:07.795Z,2.16
2019-02-14T07:06:07.804Z,2.17
2019-02-14T07:07:07.773Z,2.17
2019-02-14T07:08:07.761Z,2.09
2019-02-14T07:09:07.754Z,2.09
2019-02-14T07:10:07.739Z,2.04
2019-02-14T07:11:07.749Z,2.04
2019-02-14T07:12:07.718Z,2.04
2019-02-14T07:13:07.708Z,2.08
2019-02-14T07:14:07.694Z,1.97
2019-02-14T07:15:07.683Z,2.04
2019-02-14T07:16:09.547Z,1.97
2019-02-14T07:17:07.662Z,1.94
2019-02-14T07:18:07.648Z,2.01
2019-02-14T07:19:07.640Z,2.28
2019-02-14T07:20:07.629Z,2.22
2019-02-14T07:21:07.634Z,2.23
2019-02-14T07:22:07.605Z,2.19
2019-02-14T07:23:07.594Z,2.10
2019-02-14T07:24:07.582Z,2.13
2019-02-14T07:25:07.572Z,2.04
2019-02-14T07:26:07.582Z,2.04
2019-02-14T07:27:07.546Z,2.10
2019-02-14T07:28:07.538Z,1.99
2019-02-14T07:29:07.526Z,1.98
2019-02-14T07:30:07.513Z,2.06
2019-02-14T07:31:07.521Z,2.04
2019-02-14T07:32:07.490Z,2.04
2019-02-14T07:33:07.479Z,2.10
2019-02-14T07:34:07.472Z,1.99
2019-02-14T07:35:07.459Z,2.13
2019-02-14T07:36:07.472Z,2.13
2019-02-14T07:37:07.434Z,2.12
2019-02-14T07:38:07.428Z,2.12
2019-02-14T07:39:07.414Z,2.19
2019-02-14T07:40:07.399Z,2.22
2019-02-14T07:41:07.389Z,2.22
2019-02-14T07:42:07.395Z,2.26
2019-02-14T07:43:07.365Z,2.31
2019-02-14T07:44:07.354Z,2.38
2019-02-14T07:45:07.342Z,2.28
2019-02-14T07:46:07.332Z,2.63
2019-02-14T07:47:07.338Z,2.59
2019-02-14T07:48:07.311Z,2.66
2019-02-14T07:49:07.299Z,2.69
2019-02-14T07:50:07.286Z,2.79
2019-02-14T07:51:07.274Z,2.79
2019-02-14T07:52:07.285Z,2.82
2019-02-14T07:53:07.254Z,3.05
2019-02-14T07:54:07.246Z,3.25
2019-02-14T07:55:07.282Z,3.50
2019-02-14T07:56:07.219Z,3.80
2019-02-14T07:57:07.207Z,3.90
2019-02-14T07:58:07.214Z,3.96
2019-02-14T07:59:07.193Z,4.00
2019-02-14T08:00:07.173Z,3.96
2019-02-14T08:01:07.161Z,4.01
2019-02-14T08:02:07.151Z,4.24
2019-02-14T08:03:07.163Z,4.99
2019-02-14T08:04:07.129Z,5.85
2019-02-14T08:05:07.117Z,6.87
2019-02-14T08:06:07.105Z,7.87
2019-02-14T08:07:07.093Z,8.94
2019-02-14T08:08:07.083Z,9.35
2019-02-14T08:09:07.087Z,10.01
2019-02-14T08:10:07.057Z,9.78
2019-02-14T08:11:07.049Z,9.45
2019-02-14T08:12:07.036Z,9.32
2019-02-14T08:13:07.022Z,9.67
2019-02-14T08:14:07.030Z,10.12
2019-02-14T08:15:06.999Z,9.79
2019-02-14T08:16:06.987Z,9.15
2019-02-14T08:17:06.975Z,8.78
2019-02-14T08:18:06.969Z,9.12
2019-02-14T08:19:06.971Z,9.43
2019-02-14T08:20:06.939Z,9.34
2019-02-14T08:21:06.929Z,8.87
2019-02-14T08:22:06.916Z,7.81
2019-02-14T08:23:06.905Z,7.12
2019-02-14T08:24:06.921Z,6.58
2019-02-14T08:25:06.882Z,6.43
2019-02-14T08:26:10.744Z,6.21
2019-02-14T08:27:06.860Z,6.16
2019-02-14T08:28:06.846Z,6.14
2019-02-14T08:29:06.833Z,6.41
2019-02-14T08:30:06.864Z,6.63
2019-02-14T08:31:06.813Z,6.90
2019-02-14T08:32:06.799Z,7.15
2019-02-14T08:33:06.787Z,7.04
2019-02-14T08:34:06.775Z,7.13
2019-02-14T08:35:06.868Z,7.15
2019-02-14T08:36:06.752Z,7.42
2019-02-14T08:37:06.742Z,7.56
2019-02-14T08:38:06.732Z,8.32
2019-02-14T08:39:06.736Z,8.45
2019-02-14T08:40:06.706Z,8.94
2019-02-14T08:41:06.694Z,9.61
2019-02-14T08:42:06.682Z,10.30
2019-02-14T08:43:06.670Z,10.98
2019-02-14T08:44:06.675Z,10.68
2019-02-14T08:45:06.647Z,10.07
2019-02-14T08:46:06.637Z,9.78
2019-02-14T08:47:06.625Z,9.68
2019-02-14T08:48:06.615Z,10.15
2019-02-14T08:49:06.626Z,10.53
2019-02-14T08:50:06.589Z,9.91
2019-02-14T08:51:06.576Z,9.91
2019-02-14T08:52:06.566Z,9.75
2019-02-14T08:53:06.555Z,9.60
2019-02-14T08:54:06.583Z,9.49
2019-02-14T08:55:06.530Z,9.48
2019-02-14T08:56:06.535Z,9.42
2019-02-14T08:57:06.510Z,9.50
2019-02-14T08:58:06.508Z,9.58
2019-02-14T08:59:06.482Z,9.99
2019-02-14T09:00:06.494Z,10.66
2019-02-14T09:01:06.458Z,11.09
2019-02-14T09:02:06.447Z,11.43
2019-02-14T09:03:06.439Z,12.23
2019-02-14T09:04:06.425Z,12.37
2019-02-14T09:05:06.413Z,12.34
2019-02-14T09:06:06.420Z,11.67
2019-02-14T09:07:06.387Z,12.19
2019-02-14T09:08:06.377Z,12.34
2019-02-14T09:09:06.365Z,12.02
2019-02-14T09:10:06.353Z,11.61
2019-02-14T09:11:06.371Z,11.35
2019-02-14T09:12:06.334Z,10.98
2019-02-14T09:13:06.321Z,10.73
2019-02-14T09:14:06.307Z,10.84
2019-02-14T09:15:06.295Z,10.86
2019-02-14T09:16:06.304Z,10.99
2019-02-14T09:17:06.285Z,11.25
2019-02-14T09:18:07.838Z,11.71
2019-02-14T09:19:06.249Z,11.96
2019-02-14T09:20:06.240Z,12.38
2019-02-14T09:21:06.246Z,12.24
2019-02-14T09:22:06.214Z,12.20
2019-02-14T09:23:06.207Z,11.86
2019-02-14T09:24:06.190Z,11.65
2019-02-14T09:25:06.179Z,11.56
2019-02-14T09:26:06.190Z,11.46
2019-02-14T09:27:06.157Z,11.47
2019-02-14T09:28:06.144Z,11.61
2019-02-14T09:29:06.135Z,11.56
2019-02-14T09:30:06.122Z,11.47
2019-02-14T09:31:06.110Z,11.78
2019-02-14T09:32:06.121Z,12.39
2019-02-14T09:33:06.086Z,12.99
2019-02-14T09:34:06.075Z,13.76
2019-02-14T09:35:06.062Z,14.64
2019-02-14T09:36:06.051Z,15.41
2019-02-14T09:37:06.039Z,15.52
2019-02-14T09:38:06.044Z,15.76
2019-02-14T09:39:06.014Z,15.78
2019-02-14T09:40:06.003Z,16.22
2019-02-14T09:41:05.995Z,16.34
2019-02-14T09:42:05.981Z,17.26
2019-02-14T09:43:05.990Z,17.50
2019-02-14T09:44:05.957Z,18.00
2019-02-14T09:45:05.960Z,18.03
2019-02-14T09:46:05.936Z,18.00
2019-02-14T09:47:05.920Z,17.74
2019-02-14T09:48:05.924Z,18.19
2019-02-14T09:49:05.920Z,18.99
2019-02-14T09:50:05.887Z,19.15
2019-02-14T09:51:05.876Z,19.20
2019-02-14T09:52:05.916Z,19.35
2019-02-14T09:53:05.850Z,19.31
2019-02-14T09:54:05.860Z,18.55
2019-02-14T09:55:05.827Z,17.50
2019-02-14T09:56:05.816Z,16.62
2019-02-14T09:57:05.804Z,15.45
2019-02-14T09:58:05.806Z,15.09
2019-02-14T09:59:05.815Z,14.47
2019-02-14T10:00:05.803Z,14.57
2019-02-14T10:01:05.759Z,14.47
2019-02-14T10:02:05.745Z,14.86
2019-02-14T10:03:05.733Z,15.08
2019-02-14T10:04:05.722Z,15.76
2019-02-14T10:05:05.735Z,16.22
2019-02-14T10:06:05.709Z,16.35
2019-02-14T10:07:05.691Z,16.93
2019-02-14T10:08:12.515Z,17.35
2019-02-14T10:09:06.682Z,17.06
2019-02-14T10:10:05.660Z,16.33
2019-02-14T10:11:05.672Z,15.45
2019-02-14T10:12:05.627Z,15.28
2019-02-14T10:13:05.613Z,15.52
2019-02-14T10:14:05.603Z,15.38
2019-02-14T10:15:05.590Z,15.51
2019-02-14T10:16:05.597Z,16.26
2019-02-14T10:17:05.568Z,16.95
2019-02-14T10:18:05.559Z,17.06
2019-02-14T10:19:05.543Z,16.95
2019-02-14T10:20:05.532Z,17.33
2019-02-14T10:21:05.539Z,17.64
2019-02-14T10:22:05.509Z,18.04
2019-02-14T10:23:05.495Z,18.94
2019-02-14T10:24:05.483Z,19.54
2019-02-14T10:25:05.472Z,20.09
2019-02-14T10:26:05.483Z,20.46
2019-02-14T10:27:05.449Z,20.91
2019-02-14T10:28:05.444Z,20.79
2019-02-14T10:29:05.428Z,20.65
2019-02-14T10:30:05.416Z,20.69
2019-02-14T10:31:05.401Z,20.56
2019-02-14T10:32:05.410Z,20.30
2019-02-14T10:33:05.381Z,20.41
2019-02-14T10:34:05.367Z,21.06
2019-02-14T10:35:05.444Z,21.88
2019-02-14T10:36:05.361Z,21.98
2019-02-14T10:37:05.354Z,22.53
2019-02-14T10:38:05.320Z,22.83
2019-02-14T10:39:05.314Z,22.50
2019-02-14T10:40:05.298Z,21.95
2019-02-14T10:41:05.284Z,21.71
2019-02-14T10:42:05.274Z,21.14
2019-02-14T10:43:05.281Z,20.89
2019-02-14T10:44:05.250Z,20.49
2019-02-14T10:45:05.240Z,20.00
2019-02-14T10:46:05.227Z,20.49
2019-02-14T10:47:05.215Z,20.77
2019-02-14T10:48:05.222Z,20.47
2019-02-14T10:49:05.191Z,20.56
2019-02-14T10:50:05.181Z,20.47
2019-02-14T10:51:05.167Z,20.53
2019-02-14T10:52:05.160Z,20.41
2019-02-14T10:53:05.170Z,20.65
2019-02-14T10:54:05.133Z,21.41
2019-02-14T10:55:05.122Z,21.81
2019-02-14T10:56:05.108Z,22.06
2019-02-14T10:57:05.098Z,22.06
2019-02-14T10:58:05.085Z,22.04
2019-02-14T10:59:05.092Z,22.47
2019-02-14T11:00:05.067Z,22.37
2019-02-14T11:01:05.051Z,21.88
2019-02-14T11:02:05.038Z,21.64
2019-02-14T11:03:05.029Z,21.56
2019-02-14T11:04:05.035Z,21.46
2019-02-14T11:05:05.008Z,21.75
2019-02-14T11:06:04.993Z,22.23
2019-02-14T11:07:04.982Z,22.67
2019-02-14T11:08:04.970Z,22.96
2019-02-14T11:09:04.981Z,23.31
2019-02-14T11:10:04.945Z,23.60
2019-02-14T11:11:04.935Z,23.87
2019-02-14T11:12:04.924Z,24.42
2019-02-14T11:13:04.911Z,24.57
2019-02-14T11:14:04.899Z,25.13
2019-02-14T11:15:04.923Z,25.61
2019-02-14T11:16:04.876Z,25.52
2019-02-14T11:17:04.865Z,25.87
2019-02-14T11:18:04.853Z,26.20
2019-02-14T11:19:04.842Z,26.46
2019-02-14T11:20:04.831Z,26.65
2019-02-14T11:21:04.839Z,26.79
2019-02-14T11:22:04.808Z,26.47
2019-02-14T11:23:04.797Z,26.77
2019-02-14T11:24:04.787Z,25.99
2019-02-14T11:25:04.775Z,24.79
2019-02-14T11:26:04.782Z,24.13
2019-02-14T11:27:04.751Z,23.67
2019-02-14T11:28:04.741Z,23.15
2019-02-14T11:29:04.737Z,23.29
2019-02-14T11:30:04.726Z,23.79
2019-02-14T11:31:04.749Z,24.77
2019-02-14T11:32:04.699Z,25.43
2019-02-14T11:33:04.683Z,24.82
2019-02-14T11:34:04.670Z,23.72
2019-02-14T11:35:04.751Z,22.94
2019-02-14T11:36:04.689Z,22.92
2019-02-14T11:37:04.640Z,23.23
2019-02-14T11:38:04.627Z,23.49
2019-02-14T11:39:04.619Z,23.05
2019-02-14T11:40:04.605Z,22.17
2019-02-14T11:41:04.591Z,21.83
2019-02-14T11:42:04.601Z,21.81
2019-02-14T11:43:04.570Z,21.38
2019-02-14T11:44:04.558Z,20.96
2019-02-14T11:45:04.547Z,21.42
2019-02-14T11:46:04.533Z,22.28
2019-02-14T11:47:04.542Z,22.94
2019-02-14T11:48:04.512Z,23.82
2019-02-14T11:49:04.501Z,23.68
2019-02-14T11:50:06.488Z,23.85
2019-02-14T11:51:04.477Z,23.94
2019-02-14T11:52:04.485Z,23.94
2019-02-14T11:53:13.835Z,23.94
2019-02-14T11:54:05.441Z,24.00
2019-02-14T11:55:04.431Z,24.53
2019-02-14T11:56:04.419Z,24.67
2019-02-14T11:57:04.425Z,24.50
2019-02-14T11:58:04.395Z,24.44
2019-02-14T11:59:04.385Z,24.29
2019-02-14T12:00:04.372Z,23.49
2019-02-14T12:01:04.361Z,22.74
2019-02-14T12:02:04.367Z,22.07
2019-02-14T12:03:04.340Z,22.56
2019-02-14T12:04:04.328Z,23.15
2019-02-14T12:05:04.315Z,23.38
2019-02-14T12:06:04.304Z,23.27
2019-02-14T12:07:04.311Z,23.04
2019-02-14T12:08:04.281Z,23.26
2019-02-14T12:09:04.269Z,23.79
2019-02-14T12:10:12.976Z,24.32
2019-02-14T12:11:05.244Z,24.88
2019-02-14T12:12:04.256Z,25.06
2019-02-14T12:13:04.223Z,25.05
2019-02-14T12:14:04.213Z,25.05
2019-02-14T12:15:04.200Z,24.85
2019-02-14T12:16:04.189Z,24.76
2019-02-14T12:17:04.195Z,25.17
2019-02-14T12:18:04.166Z,25.38
2019-02-14T12:19:04.167Z,25.72
2019-02-14T12:20:04.144Z,25.71
2019-02-14T12:21:04.134Z,25.65
2019-02-14T12:22:04.145Z,26.25
2019-02-14T12:23:04.109Z,25.99
2019-02-14T12:24:04.098Z,25.84
2019-02-14T12:25:04.090Z,25.83
2019-02-14T12:26:05.709Z,25.68
2019-02-14T12:27:04.065Z,25.65
2019-02-14T12:28:04.071Z,25.94
2019-02-14T12:29:04.041Z,25.83
2019-02-14T12:30:04.029Z,25.59
2019-02-14T12:31:04.018Z,24.98
2019-02-14T12:32:04.027Z,24.61
2019-02-14T12:33:03.995Z,24.76
2019-02-14T12:34:03.985Z,25.56
2019-02-14T12:35:04.066Z,25.99
2019-02-14T12:36:03.969Z,26.25
2019-02-14T12:37:04.002Z,26.50
2019-02-14T12:38:03.957Z,26.20
2019-02-14T12:39:09.858Z,26.18
2019-02-14T12:40:04.915Z,25.90
2019-02-14T12:41:03.903Z,25.12
2019-02-14T12:42:03.892Z,24.73
2019-02-14T12:43:03.901Z,24.76
2019-02-14T12:44:03.874Z,24.53
2019-02-14T12:45:03.862Z,24.38
2019-02-14T12:46:03.847Z,24.22
2019-02-14T12:47:03.836Z,23.76
2019-02-14T12:48:03.844Z,23.45
2019-02-14T12:49:03.813Z,23.47
2019-02-14T12:50:03.802Z,23.47
2019-02-14T12:51:03.789Z,23.47
2019-02-14T12:52:03.782Z,23.60
2019-02-14T12:53:03.791Z,23.52
2019-02-14T12:54:03.755Z,23.27
2019-02-14T12:55:03.744Z,23.35
2019-02-14T12:56:03.733Z,23.77
2019-02-14T12:57:03.721Z,24.13
2019-02-14T12:58:03.740Z,24.42
2019-02-14T12:59:03.698Z,24.87
2019-02-14T13:00:03.688Z,25.37
2019-02-14T13:01:03.675Z,25.38
2019-02-14T13:02:03.664Z,25.39
2019-02-14T13:03:03.653Z,25.62
2019-02-14T13:04:03.665Z,24.88
2019-02-14T13:05:03.629Z,24.76
2019-02-14T13:06:03.618Z,24.45
2019-02-14T13:07:03.605Z,24.44
2019-02-14T13:08:03.595Z,24.60
2019-02-14T13:09:03.604Z,24.90